Terminal Aerodrome Forecast
Issued by NWS Sioux Falls, SD

Home | Current Version | Previous Version | Graphics & Text | Print | Product List | Glossary Off
Versions: 1 2 3 4 5 6 7 8 9 10 11 12 13 14 15 16 17 18 19 20 21 22 23 24 25 26 27 28 29 30 31 32 33 34 35 36 37 38 39 40

651
FTUS43 KFSD 102013 AAA
TAFSUX
TAF AMD
KSUX 102013Z 1020/1118 11009KT P6SM SCT015 BKN050
     FM110100 07007KT P6SM OVC020
     FM111100 10003KT P6SM OVC012
     FM111600 14004KT P6SM OVC015=

USA.gov is the U.S. government's official web portal to all federal, state and local government web resources and services.